createdAt,value
2023-02-13T00:01:04.068Z,9.30
2023-02-13T00:03:32.054Z,8.70
2023-02-13T00:06:00.035Z,8.10
2023-02-13T00:08:27.978Z,8.80
2023-02-13T00:10:57.562Z,8.73
2023-02-13T00:13:25.762Z,8.83
2023-02-13T00:15:58.458Z,8.87
2023-02-13T00:18:26.828Z,8.60
2023-02-13T00:21:02.232Z,8.53
2023-02-13T00:23:31.530Z,8.77
2023-02-13T00:26:02.978Z,9.07
2023-02-13T00:28:30.912Z,8.43
2023-02-13T00:31:04.970Z,9.00
2023-02-13T00:33:33.029Z,8.40
2023-02-13T00:36:06.270Z,8.80
2023-02-13T00:38:34.256Z,8.17
2023-02-13T00:41:04.378Z,7.87
2023-02-13T00:43:32.624Z,7.80
2023-02-13T00:46:01.245Z,7.10
2023-02-13T00:48:30.729Z,7.87
2023-02-13T00:50:59.425Z,7.47
2023-02-13T00:53:28.148Z,7.53
2023-02-13T00:55:56.304Z,7.17
2023-02-13T00:58:25.744Z,7.67
2023-02-13T01:00:54.669Z,8.20
2023-02-13T01:03:23.697Z,7.23
2023-02-13T01:05:52.164Z,6.97
2023-02-13T01:08:21.462Z,7.50
2023-02-13T01:10:50.378Z,7.13
2023-02-13T01:13:19.509Z,7.27
2023-02-13T01:15:50.294Z,6.93
2023-02-13T01:18:20.966Z,6.73
2023-02-13T01:20:58.874Z,6.60
2023-02-13T01:23:27.523Z,6.20
2023-02-13T01:25:55.449Z,6.47
2023-02-13T01:28:23.420Z,7.37
2023-02-13T01:30:57.000Z,6.73
2023-02-13T01:33:26.327Z,6.97
2023-02-13T01:35:55.100Z,5.93
2023-02-13T01:38:23.094Z,6.53
2023-02-13T01:40:52.829Z,6.37
2023-02-13T01:43:23.462Z,5.53
2023-02-13T01:45:56.967Z,6.00
2023-02-13T01:48:27.073Z,5.80
2023-02-13T01:51:00.044Z,5.53
2023-02-13T01:53:32.486Z,5.80
2023-02-13T01:56:06.719Z,6.10
2023-02-13T01:58:38.934Z,6.20
2023-02-13T02:01:10.978Z,5.60
2023-02-13T02:03:43.146Z,5.33
2023-02-13T02:06:18.743Z,5.20
2023-02-13T02:08:49.771Z,5.57
2023-02-13T02:11:23.970Z,4.97
2023-02-13T02:13:53.063Z,4.87
2023-02-13T02:16:22.499Z,4.70
2023-02-13T02:18:50.446Z,4.80
2023-02-13T02:21:51.661Z,4.60
2023-02-13T02:24:48.801Z,7.33
2023-02-13T02:27:57.254Z,7.33
2023-02-13T02:30:48.700Z,7.23
2023-02-13T02:33:33.958Z,6.17
2023-02-13T02:36:15.168Z,5.50
2023-02-13T02:39:00.162Z,6.33
2023-02-13T02:41:42.963Z,4.40
2023-02-13T02:44:26.951Z,4.33
2023-02-13T02:47:24.303Z,3.53
2023-02-13T02:50:02.998Z,5.53
2023-02-13T02:52:42.190Z,6.00
2023-02-13T02:55:14.757Z,4.20
2023-02-13T02:58:04.321Z,4.30
2023-02-13T03:00:53.388Z,4.00
2023-02-13T03:03:42.376Z,4.03
2023-02-13T03:06:16.180Z,3.73
2023-02-13T03:09:05.123Z,3.57
2023-02-13T03:11:50.459Z,3.60
2023-02-13T03:14:21.319Z,4.00
2023-02-13T03:17:07.272Z,4.63
2023-02-13T03:20:02.347Z,4.50
2023-02-13T03:22:42.575Z,4.20
2023-02-13T03:25:18.843Z,4.57
2023-02-13T03:28:09.420Z,4.10
2023-02-13T03:30:49.304Z,4.33
2023-02-13T03:33:29.716Z,4.40
2023-02-13T03:36:26.009Z,4.03
2023-02-13T03:39:01.180Z,3.30
2023-02-13T03:41:32.015Z,3.80
2023-02-13T03:44:06.990Z,3.63
2023-02-13T03:46:38.584Z,3.13
2023-02-13T03:49:29.037Z,4.20
2023-02-13T03:52:02.567Z,4.07
2023-02-13T03:54:54.664Z,4.27
2023-02-13T03:57:43.117Z,4.50
2023-02-13T04:00:13.983Z,3.63
2023-02-13T04:02:52.395Z,3.67
2023-02-13T04:05:24.288Z,4.17
2023-02-13T04:07:52.312Z,4.23
2023-02-13T04:10:24.466Z,4.10
2023-02-13T04:13:01.555Z,7.00
2023-02-13T04:15:34.736Z,6.60
2023-02-13T04:18:10.598Z,9.30
2023-02-13T04:20:39.970Z,6.63
2023-02-13T04:23:09.007Z,5.17
2023-02-13T04:25:41.236Z,6.97
2023-02-13T04:28:09.243Z,4.87
2023-02-13T04:30:37.611Z,4.80
2023-02-13T04:33:05.741Z,4.90
2023-02-13T04:35:33.844Z,4.40
2023-02-13T04:38:01.927Z,4.70
2023-02-13T04:40:29.898Z,4.70
2023-02-13T04:42:59.259Z,5.13
2023-02-13T04:45:27.404Z,4.10
2023-02-13T04:47:56.954Z,4.90
2023-02-13T04:50:25.648Z,5.30
2023-02-13T04:52:55.489Z,5.20
2023-02-13T04:55:23.809Z,4.83
2023-02-13T04:57:53.440Z,4.93
2023-02-13T05:00:23.843Z,4.87
2023-02-13T05:02:51.864Z,5.17
2023-02-13T05:05:20.263Z,5.10
2023-02-13T05:07:48.328Z,5.17
2023-02-13T05:10:16.240Z,4.90
2023-02-13T05:12:44.151Z,5.57
2023-02-13T05:15:12.515Z,5.70
2023-02-13T05:17:44.391Z,6.10
2023-02-13T05:20:13.429Z,5.37
2023-02-13T05:23:02.954Z,5.17
2023-02-13T05:25:31.147Z,5.43
2023-02-13T05:27:59.366Z,5.90
2023-02-13T05:30:26.499Z,6.47
2023-02-13T05:32:56.110Z,6.83
2023-02-13T05:35:24.892Z,6.53
2023-02-13T05:37:52.824Z,6.73
2023-02-13T05:40:22.895Z,6.70
2023-02-13T05:42:50.898Z,7.30
2023-02-13T05:45:18.989Z,6.10
2023-02-13T05:47:46.892Z,6.60
2023-02-13T05:50:16.277Z,7.33
2023-02-13T05:52:44.361Z,5.50
2023-02-13T05:55:12.316Z,6.27
2023-02-13T05:57:40.216Z,7.23
2023-02-13T06:00:09.251Z,6.40
2023-02-13T06:02:37.315Z,6.27
2023-02-13T06:05:05.742Z,7.30
2023-02-13T06:07:35.015Z,5.17
2023-02-13T06:10:02.954Z,6.80
2023-02-13T06:12:30.833Z,6.63
2023-02-13T06:14:58.759Z,6.13
2023-02-13T06:17:26.776Z,6.30
2023-02-13T06:19:54.711Z,5.77
2023-02-13T06:22:22.589Z,5.70
2023-02-13T06:24:51.888Z,6.00
2023-02-13T06:27:19.810Z,5.20
2023-02-13T06:29:47.816Z,5.50
2023-02-13T06:32:15.931Z,5.77
2023-02-13T06:34:43.885Z,6.37
2023-02-13T06:37:11.788Z,5.20
2023-02-13T06:39:39.705Z,5.43
2023-02-13T06:42:09.010Z,5.33
2023-02-13T06:44:36.909Z,5.47
2023-02-13T06:47:04.845Z,5.90
2023-02-13T06:49:32.767Z,5.63
2023-02-13T06:52:00.703Z,6.17
2023-02-13T06:54:44.743Z,5.73
2023-02-13T06:57:16.382Z,5.97
2023-02-13T06:59:44.340Z,5.60
2023-02-13T07:02:12.492Z,7.17
2023-02-13T07:04:40.586Z,6.73
2023-02-13T07:07:08.708Z,7.57
2023-02-13T07:09:36.726Z,6.30
2023-02-13T07:12:05.698Z,6.07
2023-02-13T07:14:34.965Z,5.67
2023-02-13T07:17:02.901Z,5.60
2023-02-13T07:19:30.851Z,5.77
2023-02-13T07:21:58.795Z,5.40
2023-02-13T07:24:26.768Z,4.40
2023-02-13T07:26:54.699Z,4.87
2023-02-13T07:29:22.619Z,5.03
2023-02-13T07:31:51.982Z,4.73
2023-02-13T07:34:19.948Z,4.60
2023-02-13T07:36:47.884Z,4.63
2023-02-13T07:39:15.913Z,4.87
2023-02-13T07:41:43.872Z,4.53
2023-02-13T07:44:12.256Z,4.50
2023-02-13T07:46:40.334Z,4.70
2023-02-13T07:49:09.844Z,5.00
2023-02-13T07:51:37.787Z,4.40
2023-02-13T07:54:05.751Z,4.67
2023-02-13T07:56:33.677Z,4.60
2023-02-13T07:59:01.621Z,5.00
2023-02-13T08:01:29.918Z,4.73
2023-02-13T08:03:57.904Z,4.80
2023-02-13T08:06:27.548Z,4.63
2023-02-13T08:09:09.460Z,4.97
2023-02-13T08:11:55.757Z,4.97
2023-02-13T08:14:24.984Z,4.80
2023-02-13T08:16:53.913Z,4.67
2023-02-13T08:19:22.178Z,4.83
2023-02-13T08:21:51.453Z,5.37
2023-02-13T08:24:19.439Z,6.33
2023-02-13T08:26:47.376Z,4.63
2023-02-13T08:29:15.408Z,5.40
2023-02-13T08:31:43.814Z,5.17
2023-02-13T08:34:11.865Z,5.27
2023-02-13T08:36:39.810Z,5.70
2023-02-13T08:39:10.902Z,4.90
2023-02-13T08:41:38.825Z,4.73
2023-02-13T08:44:06.909Z,5.27
2023-02-13T08:46:34.845Z,4.77
2023-02-13T08:49:02.765Z,5.57
2023-02-13T08:51:30.782Z,4.70
2023-02-13T08:53:58.992Z,4.57
2023-02-13T08:56:28.343Z,4.00
2023-02-13T08:58:56.278Z,4.60
2023-02-13T09:01:25.134Z,4.43
2023-02-13T09:03:53.431Z,4.30
2023-02-13T09:06:21.848Z,4.50
2023-02-13T09:08:49.819Z,4.10
2023-02-13T09:11:17.762Z,4.53
2023-02-13T09:13:48.350Z,4.57
2023-02-13T09:16:16.887Z,4.10
2023-02-13T09:18:44.994Z,4.43
2023-02-13T09:21:13.735Z,4.37
2023-02-13T09:23:42.335Z,4.40
2023-02-13T09:26:12.652Z,4.23
2023-02-13T09:28:41.878Z,4.20
2023-02-13T09:31:13.160Z,4.63
2023-02-13T09:33:42.480Z,4.30
2023-02-13T09:36:13.420Z,4.37
2023-02-13T09:38:44.135Z,4.13
2023-02-13T09:41:17.353Z,4.70
2023-02-13T09:43:50.488Z,4.07
2023-02-13T09:46:22.507Z,4.63
2023-02-13T09:48:53.150Z,4.20
2023-02-13T09:51:23.342Z,4.47
2023-02-13T09:53:55.648Z,3.80
2023-02-13T09:56:32.671Z,4.40
2023-02-13T09:59:06.521Z,4.30
2023-02-13T10:01:40.486Z,4.93
2023-02-13T10:04:26.072Z,4.87
2023-02-13T10:07:02.582Z,4.40
2023-02-13T10:09:36.555Z,4.10
2023-02-13T10:12:23.497Z,4.27
2023-02-13T10:15:01.965Z,4.10
2023-02-13T10:17:36.300Z,4.80
2023-02-13T10:20:08.146Z,4.37
2023-02-13T10:22:41.334Z,3.40
2023-02-13T10:25:17.201Z,3.77
2023-02-13T10:27:49.893Z,3.83
2023-02-13T10:30:22.043Z,3.73
2023-02-13T10:33:13.865Z,3.77
2023-02-13T10:35:44.118Z,3.80
2023-02-13T10:38:17.927Z,4.50
2023-02-13T10:41:01.574Z,4.23
2023-02-13T10:43:33.742Z,3.33
2023-02-13T10:46:15.704Z,3.23
2023-02-13T10:48:59.001Z,3.30
2023-02-13T10:51:33.598Z,3.40
2023-02-13T10:54:23.582Z,3.20
2023-02-13T10:56:58.171Z,3.20
2023-02-13T10:59:41.222Z,3.50
2023-02-13T11:02:24.529Z,3.33
2023-02-13T11:05:00.239Z,3.97
2023-02-13T11:07:29.893Z,3.47
2023-02-13T11:10:04.775Z,11.00
2023-02-13T11:12:35.200Z,3.87
2023-02-13T11:15:04.890Z,3.10
2023-02-13T11:17:35.894Z,3.40
2023-02-13T11:20:08.360Z,3.50
2023-02-13T11:22:39.315Z,3.20
2023-02-13T11:25:19.497Z,3.47
2023-02-13T11:27:50.196Z,3.10
2023-02-13T11:30:33.390Z,3.50
2023-02-13T11:33:04.000Z,3.07
2023-02-13T11:35:35.239Z,3.83
2023-02-13T11:38:24.200Z,3.27
2023-02-13T11:41:04.154Z,3.47
2023-02-13T11:43:36.891Z,4.67
2023-02-13T11:46:07.796Z,3.50
2023-02-13T11:48:36.298Z,3.83
2023-02-13T11:51:06.115Z,3.50
2023-02-13T11:53:39.176Z,4.37
2023-02-13T11:56:10.578Z,4.27
2023-02-13T11:58:38.920Z,3.83
2023-02-13T12:01:22.966Z,3.93
2023-02-13T12:04:03.641Z,3.50
2023-02-13T12:06:39.600Z,4.30
2023-02-13T12:09:13.977Z,3.90
2023-02-13T12:11:46.294Z,4.03
2023-02-13T12:14:20.894Z,4.20
2023-02-13T12:16:51.928Z,3.50
2023-02-13T12:19:25.322Z,4.07
2023-02-13T12:22:15.035Z,4.07
2023-02-13T12:25:15.189Z,4.10
2023-02-13T12:27:51.630Z,4.00
2023-02-13T12:30:38.182Z,3.93
2023-02-13T12:33:21.122Z,4.10
2023-02-13T12:35:58.429Z,3.70
2023-02-13T12:38:41.465Z,3.87
2023-02-13T12:41:17.725Z,3.87
2023-02-13T12:44:13.397Z,4.67
2023-02-13T12:46:50.145Z,4.73
2023-02-13T12:49:42.884Z,3.90
2023-02-13T12:52:31.315Z,3.93
2023-02-13T12:55:20.251Z,4.10
2023-02-13T12:58:05.285Z,3.60
2023-02-13T13:00:48.172Z,4.50
2023-02-13T13:03:34.368Z,4.57
2023-02-13T13:06:20.638Z,3.73
2023-02-13T13:09:09.892Z,3.73
2023-02-13T13:11:59.709Z,3.60
2023-02-13T13:14:37.185Z,3.47
2023-02-13T13:17:12.820Z,3.43
2023-02-13T13:19:50.390Z,3.83
2023-02-13T13:22:23.291Z,3.47
2023-02-13T13:25:02.092Z,3.10
2023-02-13T13:27:34.642Z,3.80
2023-02-13T13:30:06.957Z,3.50
2023-02-13T13:32:36.501Z,5.63
2023-02-13T13:35:05.596Z,4.00
2023-02-13T13:37:38.768Z,3.17
2023-02-13T13:40:25.351Z,3.13
2023-02-13T13:43:01.713Z,4.40
2023-02-13T13:45:38.974Z,3.70
2023-02-13T13:48:29.120Z,3.13
2023-02-13T13:50:58.651Z,3.70
2023-02-13T13:53:26.728Z,2.83
2023-02-13T13:56:09.717Z,5.17
2023-02-13T13:58:44.300Z,4.20
2023-02-13T14:01:23.585Z,3.30
2023-02-13T14:03:53.644Z,3.27
2023-02-13T14:06:23.332Z,3.60
2023-02-13T14:08:59.807Z,2.80
2023-02-13T14:11:46.943Z,3.00
2023-02-13T14:14:52.633Z,3.37
2023-02-13T14:17:53.005Z,2.80
2023-02-13T14:20:29.649Z,2.70
2023-02-13T14:23:06.411Z,2.30
2023-02-13T14:25:34.421Z,4.23
2023-02-13T14:28:05.456Z,8.77
2023-02-13T14:30:35.567Z,7.23
2023-02-13T14:33:08.003Z,3.80
2023-02-13T14:35:38.231Z,2.90
2023-02-13T14:38:10.663Z,3.33
2023-02-13T14:40:48.277Z,3.30
2023-02-13T14:43:23.307Z,7.87
2023-02-13T14:45:55.771Z,6.83
2023-02-13T14:48:33.839Z,3.50
2023-02-13T14:51:02.814Z,3.83
2023-02-13T14:53:36.066Z,3.30
2023-02-13T14:56:08.454Z,3.30
2023-02-13T14:58:42.639Z,3.50
2023-02-13T15:01:31.306Z,4.20
2023-02-13T15:04:07.054Z,3.83
2023-02-13T15:06:39.496Z,3.97
2023-02-13T15:09:19.197Z,3.43
2023-02-13T15:11:47.658Z,3.67
2023-02-13T15:14:26.823Z,3.47
2023-02-13T15:16:58.954Z,3.87
2023-02-13T15:19:28.436Z,3.97
2023-02-13T15:21:59.768Z,4.30
2023-02-13T15:24:30.273Z,4.80
2023-02-13T15:27:03.219Z,5.57
2023-02-13T15:29:47.646Z,3.83
2023-02-13T15:32:21.632Z,3.90
2023-02-13T15:34:53.625Z,4.30
2023-02-13T15:37:23.112Z,3.40
2023-02-13T15:39:51.128Z,3.53
2023-02-13T15:42:19.104Z,4.47
2023-02-13T15:44:49.911Z,4.00
2023-02-13T15:47:24.031Z,4.27
2023-02-13T15:49:53.529Z,3.20
2023-02-13T15:52:27.265Z,3.80
2023-02-13T15:54:57.095Z,3.30
2023-02-13T15:57:26.935Z,3.30
2023-02-13T15:59:56.512Z,3.97
2023-02-13T16:02:30.858Z,3.50
2023-02-13T16:05:02.508Z,4.27
2023-02-13T16:07:30.657Z,4.13
2023-02-13T16:10:16.526Z,3.93
2023-02-13T16:12:48.009Z,3.70
2023-02-13T16:15:19.225Z,4.23
2023-02-13T16:17:48.590Z,4.27
2023-02-13T16:20:23.615Z,4.53
2023-02-13T16:22:54.190Z,5.53
2023-02-13T16:25:26.910Z,5.67
2023-02-13T16:27:58.440Z,7.23
2023-02-13T16:30:34.368Z,10.40
2023-02-13T16:33:20.406Z,6.73
2023-02-13T16:35:50.838Z,8.07
2023-02-13T16:38:31.066Z,5.10
2023-02-13T16:41:01.139Z,5.40
2023-02-13T16:43:51.746Z,5.60
2023-02-13T16:46:32.630Z,4.73
2023-02-13T16:49:07.793Z,4.10
2023-02-13T16:51:40.821Z,4.80
2023-02-13T16:54:20.317Z,4.37
2023-02-13T16:56:51.068Z,4.40
2023-02-13T16:59:35.904Z,4.27
2023-02-13T17:02:19.813Z,4.00
2023-02-13T17:04:50.896Z,4.43
2023-02-13T17:07:22.968Z,4.83
2023-02-13T17:09:55.024Z,4.00
2023-02-13T17:12:24.060Z,4.07
2023-02-13T17:14:52.636Z,4.00
2023-02-13T17:17:23.724Z,4.13
2023-02-13T17:19:51.732Z,4.83
2023-02-13T17:22:34.736Z,5.13
2023-02-13T17:25:04.837Z,4.50
2023-02-13T17:27:32.807Z,5.37
2023-02-13T17:30:00.841Z,5.43
2023-02-13T17:32:30.040Z,5.70
2023-02-13T17:34:58.056Z,4.80
2023-02-13T17:37:27.574Z,5.40
2023-02-13T17:39:57.254Z,4.80
2023-02-13T17:42:26.725Z,4.70
2023-02-13T17:44:55.273Z,5.27
2023-02-13T17:47:23.547Z,7.10
2023-02-13T17:49:55.124Z,6.50
2023-02-13T17:52:28.885Z,6.17
2023-02-13T17:54:58.226Z,6.37
2023-02-13T17:57:26.154Z,6.57
2023-02-13T17:59:55.494Z,7.07
2023-02-13T18:02:24.950Z,6.50
2023-02-13T18:04:52.973Z,5.33
2023-02-13T18:07:22.395Z,5.40
2023-02-13T18:09:50.362Z,5.57
2023-02-13T18:12:21.599Z,5.27
2023-02-13T18:14:49.814Z,5.53
2023-02-13T18:17:18.733Z,5.10
2023-02-13T18:19:46.715Z,4.93
2023-02-13T18:22:15.212Z,6.30
2023-02-13T18:24:43.969Z,4.77
2023-02-13T18:27:12.433Z,4.70
2023-02-13T18:29:41.959Z,5.17
2023-02-13T18:32:12.215Z,4.93
2023-02-13T18:34:40.694Z,5.17
2023-02-13T18:37:09.762Z,4.93
2023-02-13T18:39:37.720Z,4.87
2023-02-13T18:42:06.223Z,5.50
2023-02-13T18:44:34.475Z,5.37
2023-02-13T18:47:04.455Z,4.83
2023-02-13T18:49:32.579Z,5.80
2023-02-13T18:52:01.009Z,5.60
2023-02-13T18:54:29.188Z,5.13
2023-02-13T18:56:57.202Z,5.00
2023-02-13T18:59:25.472Z,4.90
2023-02-13T19:01:53.391Z,4.83
2023-02-13T19:04:22.684Z,5.43
2023-02-13T19:06:51.139Z,5.60
2023-02-13T19:09:19.291Z,4.80
2023-02-13T19:11:48.547Z,5.97
2023-02-13T19:14:16.757Z,5.20
2023-02-13T19:16:44.684Z,5.73
2023-02-13T19:19:12.668Z,7.17
2023-02-13T19:21:41.970Z,5.73
2023-02-13T19:24:15.232Z,6.40
2023-02-13T19:26:44.669Z,5.97
2023-02-13T19:29:12.658Z,5.63
2023-02-13T19:31:41.409Z,6.00
2023-02-13T19:34:09.589Z,4.63
2023-02-13T19:36:37.615Z,4.97
2023-02-13T19:39:09.012Z,5.90
2023-02-13T19:41:37.447Z,5.53
2023-02-13T19:44:05.395Z,5.27
2023-02-13T19:46:33.758Z,5.30
2023-02-13T19:49:02.627Z,5.40
2023-02-13T19:51:32.147Z,5.20
2023-02-13T19:54:01.452Z,4.83
2023-02-13T19:56:32.121Z,7.10
2023-02-13T19:59:00.442Z,9.40
2023-02-13T20:01:30.348Z,12.00
2023-02-13T20:03:58.722Z,13.63
2023-02-13T20:06:29.067Z,9.67
2023-02-13T20:08:59.776Z,10.20
2023-02-13T20:11:27.682Z,7.77
2023-02-13T20:14:00.637Z,7.00
2023-02-13T20:16:32.809Z,7.10
2023-02-13T20:19:03.653Z,5.87
2023-02-13T20:21:33.086Z,6.70
2023-02-13T20:24:02.925Z,6.73
2023-02-13T20:26:31.153Z,7.67
2023-02-13T20:29:00.544Z,7.60
2023-02-13T20:31:30.122Z,7.77
2023-02-13T20:33:59.343Z,11.43
2023-02-13T20:36:29.377Z,11.97
2023-02-13T20:38:59.642Z,9.73
2023-02-13T20:41:29.549Z,9.77
2023-02-13T20:44:00.844Z,10.37
2023-02-13T20:46:30.811Z,9.70
2023-02-13T20:48:58.797Z,9.30
2023-02-13T20:51:26.798Z,9.63
2023-02-13T20:53:55.579Z,10.20
2023-02-13T20:56:25.513Z,10.77
2023-02-13T20:58:56.238Z,10.57
2023-02-13T21:01:28.480Z,9.90
2023-02-13T21:03:57.406Z,9.93
2023-02-13T21:06:27.701Z,9.13
2023-02-13T21:08:55.992Z,9.00
2023-02-13T21:11:25.221Z,9.03
2023-02-13T21:13:53.400Z,9.73
2023-02-13T21:16:23.204Z,8.40
2023-02-13T21:18:54.959Z,8.73
2023-02-13T21:21:23.913Z,8.77
2023-02-13T21:23:54.321Z,8.17
2023-02-13T21:26:22.754Z,8.57
2023-02-13T21:28:51.450Z,8.10
2023-02-13T21:31:23.734Z,8.67
2023-02-13T21:33:53.273Z,6.27
2023-02-13T21:36:21.349Z,7.53
2023-02-13T21:38:49.496Z,7.17
2023-02-13T21:41:19.542Z,7.13
2023-02-13T21:43:48.823Z,6.50
2023-02-13T21:46:18.734Z,6.63
2023-02-13T21:48:47.755Z,7.23
2023-02-13T21:51:18.642Z,7.17
2023-02-13T21:53:47.879Z,7.57
2023-02-13T21:56:17.962Z,8.20
2023-02-13T21:58:46.742Z,7.03
2023-02-13T22:01:25.945Z,6.57
2023-02-13T22:03:55.261Z,7.10
2023-02-13T22:06:24.769Z,6.40
2023-02-13T22:08:57.572Z,7.40
2023-02-13T22:11:25.738Z,6.80
2023-02-13T22:13:56.585Z,8.00
2023-02-13T22:16:24.990Z,7.70
2023-02-13T22:18:53.166Z,7.97
2023-02-13T22:21:23.398Z,7.07
2023-02-13T22:23:53.457Z,7.30
2023-02-13T22:26:23.561Z,7.03
2023-02-13T22:28:53.082Z,6.83
2023-02-13T22:31:25.229Z,6.60
2023-02-13T22:34:03.440Z,6.30
2023-02-13T22:36:32.310Z,6.73
2023-02-13T22:39:01.614Z,6.53
2023-02-13T22:41:29.729Z,7.03
2023-02-13T22:43:58.434Z,6.37
2023-02-13T22:46:28.277Z,7.00
2023-02-13T22:48:56.572Z,7.07
2023-02-13T22:51:25.875Z,6.90
2023-02-13T22:53:54.863Z,6.87
2023-02-13T22:56:25.169Z,5.63
2023-02-13T22:58:53.813Z,6.90
2023-02-13T23:01:24.123Z,5.97
2023-02-13T23:03:52.948Z,6.50
2023-02-13T23:06:21.883Z,6.27
2023-02-13T23:08:52.565Z,6.10
2023-02-13T23:11:41.898Z,6.43
2023-02-13T23:14:11.343Z,6.43
2023-02-13T23:16:58.153Z,6.43
2023-02-13T23:19:27.523Z,6.63
2023-02-13T23:21:55.745Z,6.07
2023-02-13T23:24:23.952Z,6.40
2023-02-13T23:26:53.213Z,6.30
2023-02-13T23:29:21.217Z,6.27
2023-02-13T23:31:49.435Z,6.53
2023-02-13T23:34:17.473Z,5.80
2023-02-13T23:36:45.780Z,6.23
2023-02-13T23:39:13.914Z,6.10
2023-02-13T23:41:41.943Z,6.33
2023-02-13T23:44:11.265Z,6.13
2023-02-13T23:46:39.325Z,6.13
2023-02-13T23:49:07.676Z,6.03
2023-02-13T23:51:35.691Z,6.77
2023-02-13T23:54:03.773Z,6.63
2023-02-13T23:56:31.897Z,6.17
2023-02-13T23:58:59.846Z,6.50
